Latest Coastal Weather Observations for Cairns

IDQ60701

Issued at 4:42 am EST Tuesday 7 February 2023 (issued every 10 minutes, with the page automatically refreshed every 10 minutes)

About coastal observations | Map of coastal stations | Coastal observations for QLD | Marine services | Other Formats
Station Details ID: 031011 Name: CAIRNS AERO Lat: -16.87 Lon: 145.75 Height: 2.22 m
Data from the previous 72 hours. | See also: Recent months at Cairns
Date/Time
EST
Wind Sea
Height
m
Swell Vis
km
Cloud Weather Temp
°C
Press
MSL
hPa
Rain since
9am
mm
Dir  Spd
kts
Gust
kts
Height
m
Period
s
Dir
07/04:30am S 4 9 - - - - 10 Partly cloudy - 26.6 1005.9 1.8
07/04:00am S 7 12 - - - - 10 Partly cloudy - 26.5 1005.8 1.8
07/03:30am SE 4 7 - - - - 10 Partly cloudy - 26.2 1005.7 1.8
07/03:00am S 6 10 - - - - 10 Partly cloudy - 26.9 1005.7 1.8
07/02:30am S 6 11 - - - - 10 - - 26.8 1006.1 1.8
07/02:00am S 6 10 - - - - 10 - - 27.1 1006.4 1.8
07/01:30am SSE 6 10 - - - - 10 - - 26.9 1006.5 1.8
07/01:00am SSE 6 10 - - - - 10 Partly cloudy - 26.9 1006.6 1.8
07/12:30am S 7 11 - - - - 10 Partly cloudy - 27.2 1007.1 1.8
07/12:12am SSE 6 12 - - - - 10 Partly cloudy - 27.3 1007.2 1.8
07/12:00am SSE 9 11 - - - - 10 Cloudy - 26.8 1007.4 1.8
 
Date/Time
EST
Wind Sea
Height
m
Swell Vis
km
Cloud Weather Temp
°C
Press
MSL
hPa
Rain since
9am
mm
Dir  Spd
kts
Gust
kts
Height
m
Period
s
Dir
06/11:59pm SSE 9 11 - - - - 10 Partly cloudy - 26.9 1007.5 1.8
06/11:30pm SE 4 6 - - - - 10 - - 27.2 1007.5 1.8
06/11:00pm S 7 12 - - - - 10 Partly cloudy - 27.4 1007.5 1.8
06/10:30pm S 8 13 - - - - 10 Partly cloudy - 27.2 1007.7 1.8
06/10:00pm SSE 5 9 - - - - 10 Partly cloudy - 27.2 1007.8 1.8
06/09:30pm SSE 4 5 - - - - 10 Partly cloudy - 27.2 1007.6 1.8
06/09:00pm SSE 4 8 - - - - 10 Partly cloudy Rain 27.0 1007.5 1.8
06/08:59pm SSE 4 8 - - - - 10 Partly cloudy - 27.0 1007.5 1.8
06/08:41pm SSE 6 10 - - - - 6 Partly cloudy - 27.1 1007.4 1.6
06/08:30pm S 7 11 - - - - 10 Partly cloudy - 27.9 1007.1 0.8
06/08:00pm S 7 11 - - - - 10 Partly cloudy - 27.5 1007.3 0.8
06/07:30pm SSE 3 6 - - - - 10 Partly cloudy - 27.8 1006.8 0.8
06/07:00pm SSE 4 7 - - - - 10 Partly cloudy - 28.3 1006.7 0.8
06/06:30pm SE 9 11 - - - - 10 Partly cloudy - 28.9 1006.3 0.8
06/06:00pm SSE 9 12 - - - - 10 Mostly clear - 29.3 1006.0 0.8
06/05:30pm SE 10 12 - - - - 10 Partly cloudy - 30.6 1005.6 0.8
06/05:00pm ESE 10 14 - - - - 10 Partly cloudy - 31.1 1005.8 0.8
06/04:30pm ENE 8 14 - - - - 10 Partly cloudy - 29.9 1005.8 0.8
06/04:00pm ESE 11 17 - - - - 10 Partly cloudy - 30.8 1005.8 0.8
06/03:30pm ESE 10 15 - - - - 10 Partly cloudy - 32.3 1005.8 0.8
06/03:00pm ESE 11 16 - - - - 10 Partly cloudy - 32.2 1006.0 0.8
06/02:30pm ESE 11 14 - - - - 10 Partly cloudy - 31.1 1006.1 0.8
06/02:00pm ESE 7 10 - - - - 10 Partly cloudy - 31.9 1006.1 0.8
06/01:30pm ESE 8 12 - - - - 10 Partly cloudy - 31.7 1006.3 0.8
06/01:00pm ESE 6 9 - - - - 10 Partly cloudy - 30.6 1006.7 0.8
06/12:30pm SE 5 8 - - - - 10 - - 29.6 1007.5 0.6
06/12:10pm SSE 7 11 - - - - 10 Partly cloudy - 28.6 1007.9 0.6
06/12:00pm SSE 11 19 - - - - 6 Cloudy Showers 28.5 1008.0 0.6
06/11:55am SE 12 19 - - - - 6 Partly cloudy - 27.8 1008.1 0.6
06/11:30am SE 8 12 - - - - 10 Partly cloudy - 30.7 1008.2 0.0
06/11:00am SE 11 15 - - - - 10 Partly cloudy - 30.8 1008.3 0.0
06/10:30am SSE 8 13 - - - - 10 Partly cloudy - 30.0 1008.5 0.0
06/10:25am SSE 7 11 - - - - 10 Partly cloudy - 29.9 1008.4 0.0
06/10:00am SSE 8 12 - - - - 10 Partly cloudy - 30.0 1008.5 0.0
06/09:30am SSE 8 12 - - - - 10 Partly cloudy - 29.6 1008.8 0.0
06/09:00am SSE 9 13 - - - - 10 Cloudy Rain 28.1 1009.1 41.0
06/08:30am SSE 7 11 - - - - 10 Partly cloudy - 27.3 1008.9 40.8
06/08:00am SSE 5 10 - - - - 10 Partly cloudy - 27.8 1008.5 40.6
06/07:30am S 7 12 - - - - 10 Partly cloudy - 27.8 1008.0 40.6
06/07:00am SSE 7 12 - - - - 10 - - 27.4 1007.8 40.6
06/06:30am S 3 8 - - - - 10 Partly cloudy - 26.3 1007.4 40.6
06/06:00am SSE 6 10 - - - - 7 Cloudy Showers 26.1 1007.3 40.6
06/05:30am SSE 7 11 - - - - 10 Partly cloudy - 26.3 1007.0 40.0
06/05:00am S 5 10 - - - - 10 Partly cloudy - 26.7 1006.6 40.0
06/04:30am S 6 9 - - - - 10 Partly cloudy - 26.5 1006.3 39.8
06/04:00am S 6 12 - - - - 10 Partly cloudy - 26.3 1006.4 39.8
06/03:30am SE 4 6 - - - - 10 Partly cloudy - 25.9 1006.2 39.8
06/03:00am ESE 2 5 - - - - 10 Cloudy Rain 25.7 1006.1 39.8
06/02:30am WSW 2 3 - - - - 10 Partly cloudy - 25.6 1006.2 39.6
06/02:22am NW 3 4 - - - - 9 Partly cloudy - 25.7 1006.2 39.6
06/02:00am W 4 7 - - - - 4 Partly cloudy - 25.7 1006.3 38.2
06/01:54am WNW 3 7 - - - - 6 Partly cloudy - 25.7 1006.4 37.4
06/01:46am W 5 10 - - - - 8 Partly cloudy - 25.9 1006.5 37.2
06/01:30am W 4 6 - - - - 1 Partly cloudy - 26.0 1006.6 37.0
06/01:19am S 4 8 - - - - 3 Partly cloudy - 26.3 1006.9 32.2
06/01:01am SSE 7 11 - - - - 2 Partly cloudy - 25.8 1006.8 25.8
06/01:00am SSE 7 11 - - - - 2 Partly cloudy - 25.9 1006.9 25.4
06/12:41am SSE 8 11 - - - - 6 Partly cloudy - 26.7 1007.1 18.0
06/12:30am S 7 10 - - - - 10 Partly cloudy - 27.0 1006.9 17.4
06/12:00am S 6 9 - - - - 10 Cloudy Thunderstorm 27.1 1007.2 17.0
 
Date/Time
EST
Wind Sea
Height
m
Swell Vis
km
Cloud Weather Temp
°C
Press
MSL
hPa
Rain since
9am
mm
Dir  Spd
kts
Gust
kts
Height
m
Period
s
Dir
05/11:30pm S 7 12 - - - - 10 Partly cloudy - 26.8 1007.4 17.0
05/11:07pm SSE 6 10 - - - - 10 Partly cloudy - 26.8 1007.5 17.0
05/11:00pm SSE 5 9 - - - - 10 Partly cloudy - 26.8 1007.6 17.0
05/10:52pm S 5 8 - - - - 7 Partly cloudy - 26.9 1007.7 17.0
05/10:30pm SE 4 6 - - - - 10 Partly cloudy - 27.1 1007.6 16.6
05/10:00pm SSE 4 8 - - - - 10 Partly cloudy - 27.1 1007.5 16.6
05/09:32pm SSE 6 8 - - - - 10 Partly cloudy - 27.0 1007.2 16.4
05/09:30pm SSE 5 8 - - - - 10 Partly cloudy - 27.1 1007.1 16.4
05/09:15pm SSE 6 8 - - - - 6 Partly cloudy - 27.0 1007.3 16.4
05/09:00pm SSE 5 7 - - - - 10 Cloudy Rain 27.1 1007.2 15.2
05/08:30pm SSE 4 7 - - - - 10 Partly cloudy - 27.7 1006.8 15.2
05/08:00pm SSE 6 9 - - - - 10 Partly cloudy - 27.1 1006.5 15.2
05/07:30pm SSE 8 10 - - - - 10 Partly cloudy - 27.2 1006.0 15.2
05/07:00pm SSE 5 9 - - - - 10 Partly cloudy - 27.1 1005.8 15.2
05/06:30pm SSE 6 8 - - - - 10 Partly cloudy - 27.1 1005.5 15.2
05/06:23pm SSE 6 9 - - - - 10 Partly cloudy - 27.0 1005.2 15.2
05/06:04pm ESE 9 14 - - - - 6 Partly cloudy - 27.8 1005.0 15.0
05/06:00pm ESE 6 11 - - - - 10 Cloudy - 29.5 1004.9 14.0
05/05:30pm SE 6 8 - - - - 10 Partly cloudy - 30.1 1004.4 14.0
05/05:00pm SE 9 11 - - - - 10 Partly cloudy - 30.4 1004.2 14.0
05/04:30pm ESE 8 11 - - - - 10 Partly cloudy - 30.7 1003.9 14.0
05/04:00pm ESE 7 11 - - - - 10 Partly cloudy - 30.0 1003.9 14.0
05/03:30pm ESE 4 9 - - - - 10 Partly cloudy - 30.5 1004.0 14.0
05/03:00pm SE 5 8 - - - - 10 Cloudy - 30.5 1004.2 14.0
05/02:57pm ESE 5 8 - - - - 10 Partly cloudy - 30.3 1004.2 14.0
05/02:34pm NE 5 8 - - - - 10 Partly cloudy - 30.2 1004.4 14.0
05/02:30pm NE 5 8 - - - - 10 Partly cloudy - 30.2 1004.3 14.0
05/02:00pm ENE 4 7 - - - - 10 Partly cloudy - 30.6 1004.7 14.0
05/01:30pm ENE 4 8 - - - - 10 Partly cloudy - 29.8 1005.2 14.0
05/01:00pm ENE 5 8 - - - - 10 - - 29.9 1005.6 14.0
05/12:30pm ENE 4 8 - - - - 10 - - 30.5 1006.3 14.0
05/12:00pm W 2 3 - - - - 10 Cloudy Rain 29.4 1006.6 13.8
05/11:30am WNW 2 3 - - - - 10 Partly cloudy - 27.7 1006.8 13.8
05/11:28am WNW 2 3 - - - - 10 Partly cloudy - 27.4 1006.9 13.8
05/11:00am SW 1 3 - - - - 1 Partly cloudy - 27.4 1007.3 13.6
05/10:47am SE 1 3 - - - - 6 Cloudy - 27.5 1007.4 9.8
05/10:30am S 2 3 - - - - 10 Cloudy - 27.3 1007.3 9.0
05/10:09am S 3 4 - - - - 10 Partly cloudy - 26.7 1007.2 9.0
05/10:00am S 4 6 - - - - 10 Partly cloudy - 26.2 1007.3 9.0
05/09:55am SSE 5 8 - - - - 10 Partly cloudy - 26.0 1007.4 9.0
05/09:33am SSE 6 9 - - - - 3 Partly cloudy - 26.0 1007.4 8.0
05/09:30am SE 5 7 - - - - 3 Partly cloudy - 26.0 1007.6 7.0
05/09:12am SE 5 8 - - - - 5 Partly cloudy - 26.3 1007.3 1.8
05/09:11am SE 5 8 - - - - 6 Partly cloudy - 26.3 1007.3 1.4
05/09:02am SSE 2 5 - - - - 10 Partly cloudy - 26.5 1007.0 0.0
05/09:00am SSE 3 8 - - - - 10 Mostly cloudy Showers 26.6 1006.9 15.4
05/08:30am SSE 3 5 - - - - 10 Partly cloudy - 26.7 1006.2 15.4
05/08:00am NNW 1 3 - - - - 10 Partly cloudy - 27.1 1006.1 15.2
05/07:30am S 2 4 - - - - 10 Partly cloudy - 26.3 1005.8 15.0
05/07:00am SE 4 5 - - - - 10 Partly cloudy - 25.9 1005.5 14.8
05/06:57am SE 4 6 - - - - 10 Partly cloudy - 25.8 1005.4 14.8
05/06:36am ESE 7 9 - - - - 10 Partly cloudy - 25.6 1005.3 14.8
05/06:30am SE 6 8 - - - - 10 Partly cloudy - 25.6 1005.1 14.8
05/06:20am SE 6 7 - - - - 10 Partly cloudy - 25.5 1005.0 14.8
05/06:11am SE 5 8 - - - - 7 Partly cloudy - 25.5 1004.9 14.8
05/06:04am SSE 7 10 - - - - 6 Partly cloudy - 25.6 1004.8 14.6
05/06:00am SSE 8 10 - - - - 10 Cloudy Rain 25.7 1004.9 14.2
05/05:56am SSE 8 12 - - - - 10 Partly cloudy - 25.8 1004.9 14.0
05/05:30am SSE 5 10 - - - - 10 Partly cloudy - 25.9 1004.6 14.0
05/05:00am SSE 5 8 - - - - 10 Partly cloudy - 26.0 1004.3 14.0
05/04:30am SSE 7 10 - - - - 10 Partly cloudy - 25.9 1004.1 14.0
05/04:00am SSE 6 9 - - - - 10 Cloudy - 26.2 1003.9 14.0
05/03:30am SSE 5 9 - - - - 10 Partly cloudy - 26.2 1003.7 14.0
05/03:00am SSE 4 7 - - - - 10 Cloudy Showers 26.2 1003.7 14.0
05/02:52am SSE 3 4 - - - - 10 Partly cloudy - 26.0 1003.6 14.0
05/02:50am SSE 3 4 - - - - 10 Partly cloudy - 25.9 1003.6 14.0
05/02:36am SE 6 8 - - - - 6 Partly cloudy - 25.9 1003.6 13.8
05/02:30am SE 7 8 - - - - 7 Partly cloudy - 25.9 1003.7 13.2
05/02:17am SSE 6 8 - - - - 10 Partly cloudy - 25.9 1003.5 12.4
05/02:10am SE 4 8 - - - - 10 Partly cloudy - 26.1 1003.5 12.4
05/02:05am SE 2 5 - - - - 10 Partly cloudy - 25.8 1003.5 12.4
05/02:00am SSE 2 3 - - - - 5 Partly cloudy - 25.7 1003.4 12.4
05/01:51am SSE 3 4 - - - - 6 Partly cloudy - 25.7 1003.6 12.0
05/01:32am SSE 1 3 - - - - 10 Partly cloudy - 26.1 1003.9 10.4
05/01:30am SSE 1 3 - - - - 10 Partly cloudy - 26.0 1003.9 10.4
05/01:00am S 1 3 - - - - 10 Partly cloudy - 25.9 1004.2 10.4
05/12:30am SW 2 3 - - - - 10 - - 26.3 1004.7 10.4
05/12:00am SSE 5 8 - - - - 10 Partly cloudy - 26.4 1004.9 10.4
 
Date/Time
EST
Wind Sea
Height
m
Swell Vis
km
Cloud Weather Temp
°C
Press
MSL
hPa
Rain since
9am
mm
Dir  Spd
kts
Gust
kts
Height
m
Period
s
Dir
04/11:30pm SSE 7 10 - - - - 10 Partly cloudy - 26.6 1005.3 10.4
04/11:00pm SSE 3 6 - - - - 9 Partly cloudy - 26.8 1005.8 10.4
04/10:55pm S 1 3 - - - - 10 Partly cloudy - 26.8 1005.8 10.4
04/10:43pm SSE 1 3 - - - - 5 Partly cloudy - 26.5 1005.7 10.2
04/10:30pm NE 3 4 - - - - 2 Partly cloudy - 26.4 1005.7 9.6
04/10:03pm NW 3 5 - - - - 5 Partly cloudy - 27.1 1005.5 1.8
04/10:00pm NW 2 4 - - - - 2 Partly cloudy - 27.2 1005.4 1.8
04/09:52pm CALM 0 1 - - - - 4 Partly cloudy - 27.6 1005.2 1.0
04/09:30pm SSE 2 2 - - - - 10 Partly cloudy - 27.3 1004.6 0.0
04/09:03pm SSW 2 3 - - - - 10 Partly cloudy - 27.3 1004.8 0.0
04/09:00pm SSW 1 3 - - - - 10 Cloudy Showers 27.2 1004.8 0.0
04/08:47pm NNE 3 5 - - - - 6 Partly cloudy - 27.5 1004.8 0.0
04/08:30pm ENE 2 5 - - - - 10 Partly cloudy - 28.4 1004.6 0.0
04/08:04pm CALM 0 1 - - - - 10 Partly cloudy - 28.3 1004.2 0.0
04/08:00pm CALM 0 1 - - - - 10 Partly cloudy - 28.2 1004.1 0.0
04/07:49pm CALM 0 0 - - - - 10 Partly cloudy - 28.3 1004.0 0.0
04/07:30pm CALM 0 0 - - - - 10 Partly cloudy - 28.1 1003.8 0.0
04/07:00pm NNE 2 2 - - - - 10 Partly cloudy - 28.7 1003.1 0.0
04/06:30pm NNE 3 5 - - - - 10 Partly cloudy - 29.0 1002.8 0.0
04/06:00pm NE 3 5 - - - - 10 Cloudy - 29.6 1002.3 0.0
04/05:30pm NNE 3 5 - - - - 10 - - 29.7 1002.1 0.0
04/05:00pm NNE 3 7 - - - - 10 Partly cloudy - 29.9 1001.7 0.0
04/04:30pm N 5 8 - - - - 10 Partly cloudy - 29.8 1001.4 0.0
04/04:00pm NNE 3 7 - - - - 10 Partly cloudy - 30.0 1000.9 0.0
04/03:30pm NNE 5 10 - - - - 10 Partly cloudy - 30.4 1001.0 0.0
04/03:00pm NNE 6 10 - - - - 10 - - 30.4 1001.2 0.0
04/02:30pm NNE 7 10 - - - - 10 Partly cloudy - 30.7 1001.3 0.0
04/02:00pm N 6 9 - - - - 10 - - 30.8 1001.7 0.0
04/01:30pm NNE 6 10 - - - - 10 - - 31.1 1001.7 0.0
04/01:00pm NNE 5 8 - - - - 10 - - 30.9 1002.1 0.0
04/12:30pm NNE 6 9 - - - - 10 - - 30.5 1002.2 0.0
04/12:00pm NNE 7 10 - - - - 10 Mostly cloudy - 30.2 1002.7 0.0
04/11:30am NNE 5 9 - - - - 10 Partly cloudy - 31.2 1003.0 0.0
04/11:00am N 5 8 - - - - 10 - - 30.8 1003.4 0.0
04/10:30am N 4 8 - - - - 10 - - 30.2 1003.4 0.0
04/10:00am N 2 4 - - - - 10 - - 30.2 1003.4 0.0
04/09:30am NE 1 3 - - - - 10 - - 29.7 1003.4 0.0
04/09:00am CALM 0 1 - - - - 10 - - 29.2 1003.2 1.8
04/08:30am CALM 0 0 - - - - 10 - - 28.5 1003.1 1.8
04/08:00am WNW 1 2 - - - - 10 - - 28.1 1002.8 1.8
04/07:30am WNW 1 2 - - - - 10 - - 26.9 1002.9 1.8
04/07:00am CALM 0 0 - - - - 10 - - 26.3 1002.7 1.8
04/06:30am ESE 2 3 - - - - 10 - - 26.0 1002.5 1.8
04/06:00am S 2 3 - - - - 10 Cloudy - 25.5 1001.9 1.8
04/05:30am CALM 0 2 - - - - 10 - - 25.8 1001.4 1.8
04/05:00am SSE 1 2 - - - - 10 - - 25.7 1000.8 1.8

Other formats

Comma delimited format used in spreadsheet applications
http://www.bom.gov.au/fwo/IDQ60701/IDQ60701.94287.axf

JavaScript Object Notation format (JSON) in row-major order
http://www.bom.gov.au/fwo/IDQ60701/IDQ60701.94287.json

Data quality

Most of these data are generated automatically and are frequently updated. Quality checks on data are not normally performed. It is possible for incorrect values to appear. Refer to information at About Latest Weather Observations and please check the disclaimer before using these data.